Skip Navigation LinksHome page > Weather > Current weather Skip Navigation Links

Current Weather

Heathrow, London

For information only: do not use for flight planning or navigation.
Latest weather
Observation time Friday, October 9, 2015 8:50 PM BST
Local time Friday, October 9, 2015 9:00 PM BST
Flight conditions Visual Meteorological Conditions
Wind direction East-Northeast (70°)
Wind speed 3 mph
Visibility 6.2 mi.
Sky condition
Ceiling unlimited
Temperature 50°F
Dewpoint 46°F
Altimeter 30.18 in.Hg
Derived measurements
Relative humidity 87%
Wind chill 49°F
Density altitude -741 ft.
Corrected report.
Fully automated report.
No significant changes expected in the next two hours.
METAR COR EGLL 091950Z AUTO 07003KT 9999 NCD 10/08 Q1022 NOSIG


Location code

InnerDrive.Weather 4.0.5722.1 Release CLR 4.0.30319.34014
Copyright ©2015 Inner Drive Technology. All rights reserved. Portions Copyright ©1986-2015 David Braverman.

Find weather

Site navigation

Skip Navigation Links

Place info

Page info

PayPal - The safer, easier way to pay online!

Return home.

Copyright ©2015 Inner Drive Technology. Purveyors of fine, hand-crafted computer software. Page printed 2015-10-09T20:00:14 UTC.